Time;durP1;ratioP1;P1;durP2;ratioP2;P2;SDS_P1;SDS_P2;PMS_P1;PMS_P2;Temp;Humidity;BMP_temperature;BMP_pressure;BME280_temperature;BME280_humidity;BME280_pressure;Samples;Min_cycle;Max_cycle;Signal;HPM_P1;HPM_P2
2021/09/11 00:00:32;;;;;;;0.80;0.60;;;19.50;99.90;;;;;;5012909;28;20195;-74
2021/09/11 00:02:58;;;;;;;0.80;0.63;;;19.50;99.90;;;;;;5029374;28;20641;-74
2021/09/11 00:05:23;;;;;;;0.80;0.60;;;19.50;99.90;;;;;;5030847;28;20525;-73
2021/09/11 00:07:50;;;;;;;0.70;0.50;;;19.50;99.90;;;;;;5034089;28;20657;-74
2021/09/11 00:10:17;;;;;;;0.70;0.50;;;19.50;99.90;;;;;;5028002;28;20200;-75
2021/09/11 00:12:43;;;;;;;1.23;1.13;;;19.50;99.90;;;;;;5017023;28;20462;-74
2021/09/11 00:15:12;;;;;;;1.20;0.97;;;19.50;99.90;;;;;;5013827;28;20431;-74
2021/09/11 00:17:39;;;;;;;0.77;0.60;;;19.50;99.90;;;;;;5014036;28;20454;-75
2021/09/11 00:20:07;;;;;;;0.70;0.50;;;19.40;99.90;;;;;;5032209;28;20493;-75
2021/09/11 00:22:32;;;;;;;0.90;0.60;;;19.40;99.90;;;;;;5020949;28;20434;-75
2021/09/11 00:24:58;;;;;;;1.50;1.40;;;19.40;99.90;;;;;;5013692;28;20514;-75
2021/09/11 00:27:24;;;;;;;0.70;0.70;;;19.40;99.90;;;;;;5013947;28;20226;-74
2021/09/11 00:29:50;;;;;;;0.90;0.60;;;19.40;99.90;;;;;;5013843;28;20196;-74
2021/09/11 00:32:16;;;;;;;1.00;0.87;;;19.40;99.90;;;;;;5016724;28;20196;-74
2021/09/11 00:34:42;;;;;;;0.80;0.50;;;19.30;99.90;;;;;;5012550;28;20180;-74
2021/09/11 00:37:07;;;;;;;0.70;0.50;;;19.30;99.90;;;;;;5012069;28;20415;-75
2021/09/11 00:39:33;;;;;;;0.70;0.50;;;19.30;99.90;;;;;;5013652;28;20435;-75
2021/09/11 00:41:58;;;;;;;1.50;0.90;;;19.30;99.90;;;;;;5013920;28;20181;-76
2021/09/11 00:44:24;;;;;;;1.10;1.00;;;19.20;99.90;;;;;;5013718;28;20204;-74
2021/09/11 00:46:49;;;;;;;0.80;0.60;;;19.20;99.90;;;;;;5020616;28;20230;-74
2021/09/11 00:49:15;;;;;;;0.70;0.60;;;19.20;99.90;;;;;;5013475;28;20199;-74
2021/09/11 00:51:41;;;;;;;0.70;0.53;;;19.10;99.90;;;;;;5016213;28;20202;-74
2021/09/11 00:54:08;;;;;;;0.80;0.80;;;19.10;99.90;;;;;;5027738;28;20211;-75
2021/09/11 00:56:34;;;;;;;0.87;0.77;;;19.00;99.90;;;;;;5013144;28;20407;-74
2021/09/11 00:59:01;;;;;;;0.70;0.60;;;19.00;99.90;;;;;;5013276;28;20415;-75
2021/09/11 01:01:28;;;;;;;0.70;0.60;;;19.00;99.90;;;;;;5014560;28;20510;-75
2021/09/11 01:03:53;;;;;;;0.70;0.57;;;19.10;99.90;;;;;;5032229;28;20419;-74
2021/09/11 01:06:19;;;;;;;1.17;0.90;;;19.10;99.90;;;;;;5032626;28;20409;-74
2021/09/11 01:08:46;;;;;;;1.20;1.10;;;19.10;99.90;;;;;;5032958;28;20195;-74
2021/09/11 01:11:12;;;;;;;0.90;0.77;;;19.20;99.90;;;;;;5014801;28;20451;-75
2021/09/11 01:13:38;;;;;;;0.80;0.70;;;19.10;99.90;;;;;;5029845;28;20411;-75
2021/09/11 01:16:04;;;;;;;0.83;0.73;;;19.20;99.90;;;;;;5031696;28;20422;-74
2021/09/11 01:18:30;;;;;;;1.53;0.97;;;19.20;99.90;;;;;;5032747;28;20183;-75
2021/09/11 01:20:56;;;;;;;2.10;2.00;;;19.10;99.90;;;;;;5032685;28;20954;-75
2021/09/11 01:23:23;;;;;;;1.00;0.93;;;19.10;99.90;;;;;;5032294;28;20430;-75
2021/09/11 01:25:48;;;;;;;1.10;1.00;;;19.00;99.90;;;;;;5031080;28;20171;-75
2021/09/11 01:28:15;;;;;;;1.23;0.80;;;19.00;99.90;;;;;;5021775;28;20427;-75
2021/09/11 01:30:41;;;;;;;1.33;0.90;;;19.00;99.90;;;;;;5012644;28;20199;-75
2021/09/11 01:33:06;;;;;;;0.77;0.60;;;19.00;99.90;;;;;;5023989;28;20466;-75
2021/09/11 01:35:33;;;;;;;1.10;0.80;;;19.00;99.90;;;;;;5031266;28;20186;-76
2021/09/11 01:37:58;;;;;;;1.30;1.20;;;19.10;99.90;;;;;;5030710;28;20683;-75
2021/09/11 01:40:24;;;;;;;0.87;0.73;;;19.00;99.90;;;;;;5032136;28;20466;-75
2021/09/11 01:42:50;;;;;;;1.13;1.03;;;19.00;99.90;;;;;;5021639;28;20230;-75
2021/09/11 01:45:20;;;;;;;0.97;0.87;;;18.90;99.90;;;;;;5022002;28;20183;-75
2021/09/11 01:47:48;;;;;;;0.80;0.80;;;18.90;99.90;;;;;;5014119;28;20180;-74
2021/09/11 01:50:20;;;;;;;1.47;1.17;;;18.90;99.90;;;;;;5015219;28;20447;-74
2021/09/11 01:52:47;;;;;;;1.57;1.47;;;18.90;99.90;;;;;;5012619;28;20800;-75
2021/09/11 01:55:15;;;;;;;0.77;0.70;;;18.90;99.90;;;;;;5012018;28;20427;-76
2021/09/11 01:57:45;;;;;;;4.23;1.03;;;18.90;99.90;;;;;;5012328;28;20409;-76
2021/09/11 02:00:13;;;;;;;1.47;1.37;;;19.00;99.90;;;;;;5012381;28;20843;-75
2021/09/11 02:02:40;;;;;;;0.87;0.67;;;19.00;99.90;;;;;;5019291;28;20410;-75
2021/09/11 02:05:06;;;;;;;2.07;1.97;;;19.00;99.90;;;;;;5015316;28;20423;-75
2021/09/11 02:07:32;;;;;;;2.03;1.43;;;19.10;99.90;;;;;;5012347;28;20434;-75
2021/09/11 02:09:58;;;;;;;2.03;1.47;;;19.10;99.90;;;;;;5037220;28;20437;-75
2021/09/11 02:12:24;;;;;;;1.27;1.17;;;19.10;99.90;;;;;;5033611;28;20449;-76
2021/09/11 02:14:49;;;;;;;1.90;1.33;;;19.10;99.90;;;;;;5031743;28;20175;-75
2021/09/11 02:17:15;;;;;;;2.13;1.93;;;19.10;99.90;;;;;;5031285;28;20174;-76
2021/09/11 02:19:40;;;;;;;2.70;1.37;;;19.20;99.90;;;;;;5036807;28;20719;-75
2021/09/11 02:22:10;;;;;;;1.03;0.80;;;19.20;99.90;;;;;;5026871;28;20176;-76
2021/09/11 02:24:36;;;;;;;3.23;1.90;;;19.20;99.90;;;;;;5018554;28;20591;-75
2021/09/11 02:27:03;;;;;;;2.70;1.80;;;19.30;99.90;;;;;;5017056;28;20427;-74
2021/09/11 02:29:29;;;;;;;1.97;1.80;;;19.30;99.90;;;;;;5017350;28;20920;-76
2021/09/11 02:31:54;;;;;;;1.93;1.17;;;19.30;99.90;;;;;;5018703;28;20486;-75
2021/09/11 02:34:20;;;;;;;3.50;1.47;;;19.40;99.90;;;;;;5031713;28;20509;-75
2021/09/11 02:36:45;;;;;;;1.57;1.43;;;19.40;99.90;;;;;;5038194;28;20553;-76
2021/09/11 02:39:11;;;;;;;4.83;2.50;;;19.40;99.90;;;;;;5038231;28;20198;-76
2021/09/11 02:41:36;;;;;;;1.40;1.30;;;19.50;99.90;;;;;;5038398;28;20178;-76
2021/09/11 02:44:03;;;;;;;1.43;1.33;;;19.60;99.90;;;;;;5037460;28;20183;-75
2021/09/11 02:46:32;;;;;;;2.40;1.80;;;19.70;99.90;;;;;;5026852;28;20191;-76
2021/09/11 02:49:02;;;;;;;2.10;1.90;;;19.70;99.90;;;;;;5019377;28;20788;-76
2021/09/11 02:51:27;;;;;;;4.07;2.07;;;19.80;99.90;;;;;;5018409;28;20442;-75
2021/09/11 02:53:54;;;;;;;1.23;1.07;;;19.80;99.90;;;;;;5018272;28;20758;-75
2021/09/11 02:56:19;;;;;;;1.23;1.13;;;19.80;99.90;;;;;;5032666;28;20206;-74
2021/09/11 02:58:45;;;;;;;1.63;1.53;;;19.80;99.90;;;;;;5037848;28;20422;-75
2021/09/11 03:01:10;;;;;;;1.43;1.30;;;19.80;99.90;;;;;;5038111;28;20187;-73
2021/09/11 03:03:37;;;;;;;1.80;1.27;;;19.90;99.90;;;;;;5038095;28;20171;-73
2021/09/11 03:06:04;;;;;;;2.40;2.20;;;19.90;99.90;;;;;;5023792;28;20188;-74
2021/09/11 03:08:29;;;;;;;2.70;1.60;;;19.80;99.90;;;;;;5018246;28;20509;-74
2021/09/11 03:10:55;;;;;;;3.87;2.73;;;19.80;99.90;;;;;;5021654;28;20430;-74
2021/09/11 03:13:21;;;;;;;1.67;1.47;;;19.90;99.90;;;;;;5038520;28;20207;-75
2021/09/11 03:15:47;;;;;;;1.37;1.27;;;19.90;99.90;;;;;;5038940;28;20171;-74
2021/09/11 03:18:12;;;;;;;2.70;2.50;;;19.90;99.90;;;;;;5037968;28;20398;-74
2021/09/11 03:20:38;;;;;;;8.93;7.93;;;19.80;99.90;;;;;;5022760;28;20551;-75
2021/09/11 03:23:05;;;;;;;1.60;1.50;;;19.80;99.90;;;;;;5019234;28;20200;-76
2021/09/11 03:25:31;;;;;;;6.67;2.43;;;19.80;99.90;;;;;;5017909;28;20176;-74
2021/09/11 03:27:57;;;;;;;3.93;1.30;;;19.80;99.90;;;;;;5019274;28;20434;-77
2021/09/11 03:30:22;;;;;;;1.07;0.97;;;19.70;99.90;;;;;;5029868;28;20195;-76
2021/09/11 03:32:48;;;;;;;4.80;4.00;;;19.70;99.90;;;;;;5032880;28;20203;-76
2021/09/11 03:35:14;;;;;;;1.90;1.57;;;19.70;99.90;;;;;;5028040;28;20168;-77
2021/09/11 03:37:39;;;;;;;1.83;1.53;;;19.70;99.90;;;;;;5015483;28;20246;-77
2021/09/11 03:40:06;;;;;;;3.90;2.20;;;19.70;99.90;;;;;;5022293;28;20188;-75
2021/09/11 03:42:31;;;;;;;1.47;1.00;;;19.70;99.90;;;;;;5014836;28;20165;-75
2021/09/11 03:44:57;;;;;;;1.10;0.80;;;19.70;99.90;;;;;;5014459;28;20487;-75
2021/09/11 03:47:22;;;;;;;4.60;2.30;;;19.70;99.90;;;;;;5014769;28;20260;-75
2021/09/11 03:49:48;;;;;;;5.60;1.13;;;19.70;99.90;;;;;;5025987;28;20724;-75
2021/09/11 03:52:13;;;;;;;1.00;0.90;;;19.60;99.90;;;;;;5035380;28;20279;-76
2021/09/11 03:54:39;;;;;;;2.30;1.97;;;19.60;99.90;;;;;;5032669;28;20172;-75
2021/09/11 03:57:05;;;;;;;0.80;0.63;;;19.60;99.90;;;;;;5028879;28;20176;-74
2021/09/11 03:59:30;;;;;;;1.20;1.00;;;19.60;99.90;;;;;;5016215;28;20204;-76
2021/09/11 04:01:56;;;;;;;2.03;1.83;;;19.60;99.90;;;;;;5014523;28;20502;-75
2021/09/11 04:04:21;;;;;;;1.10;0.80;;;19.60;99.90;;;;;;5014445;28;20168;-75
2021/09/11 04:06:47;;;;;;;2.50;1.30;;;19.60;99.90;;;;;;5015528;28;20528;-77
2021/09/11 04:09:12;;;;;;;1.17;1.00;;;19.60;99.90;;;;;;5017518;28;20222;-76
2021/09/11 04:11:38;;;;;;;4.70;1.33;;;19.60;99.90;;;;;;5016767;28;20238;-76
2021/09/11 04:14:04;;;;;;;1.33;1.03;;;19.60;99.90;;;;;;5016101;28;20161;-77
2021/09/11 04:16:29;;;;;;;0.80;0.60;;;19.60;99.90;;;;;;5017341;28;20295;-76
2021/09/11 04:18:55;;;;;;;1.63;1.17;;;19.60;99.90;;;;;;5033939;28;20164;-75
2021/09/11 04:21:20;;;;;;;2.53;2.17;;;19.60;99.90;;;;;;5015352;28;20669;-77
2021/09/11 04:23:46;;;;;;;0.70;0.60;;;19.60;99.90;;;;;;5015446;28;20215;-74
2021/09/11 04:26:12;;;;;;;4.40;3.70;;;19.60;99.90;;;;;;5014850;28;20180;-77
2021/09/11 04:28:37;;;;;;;1.70;1.10;;;19.50;99.90;;;;;;5017771;28;20168;-76
2021/09/11 04:31:03;;;;;;;4.03;1.67;;;19.50;99.90;;;;;;5032865;28;20188;-75
2021/09/11 04:33:29;;;;;;;0.80;0.60;;;19.50;99.90;;;;;;5013884;28;20235;-75
2021/09/11 04:35:54;;;;;;;0.90;0.87;;;19.50;99.90;;;;;;5013523;28;20178;-75
2021/09/11 04:38:20;;;;;;;1.10;1.00;;;19.50;99.90;;;;;;5033394;28;20648;-74
2021/09/11 04:40:46;;;;;;;1.67;1.57;;;19.40;99.90;;;;;;5033189;28;20262;-76
2021/09/11 04:43:11;;;;;;;0.97;0.93;;;19.40;99.90;;;;;;5020172;28;20180;-76
2021/09/11 04:45:37;;;;;;;1.00;0.83;;;19.30;99.90;;;;;;5013438;28;20218;-76
2021/09/11 04:48:03;;;;;;;1.20;1.10;;;19.30;99.90;;;;;;5013623;28;20184;-75
2021/09/11 04:50:28;;;;;;;1.13;1.03;;;19.30;99.90;;;;;;5013535;28;20239;-75
2021/09/11 04:52:55;;;;;;;1.40;1.27;;;19.30;99.90;;;;;;5013399;28;20196;-74
2021/09/11 04:55:21;;;;;;;1.67;1.47;;;19.30;99.90;;;;;;5022983;28;20186;-73
2021/09/11 04:57:47;;;;;;;0.90;0.60;;;19.20;99.90;;;;;;5033170;28;20964;-78
2021/09/11 05:00:14;;;;;;;0.70;0.50;;;19.20;99.90;;;;;;5033317;28;20434;-77
2021/09/11 05:02:39;;;;;;;2.70;1.33;;;19.10;99.90;;;;;;5032634;28;20258;-76
2021/09/11 05:05:06;;;;;;;9.97;0.93;;;19.10;99.90;;;;;;5031935;28;20552;-76
2021/09/11 05:07:32;;;;;;;1.47;1.37;;;19.10;99.90;;;;;;5033236;28;20180;-76
2021/09/11 05:09:57;;;;;;;2.47;1.40;;;19.10;99.90;;;;;;5032829;28;20437;-75
2021/09/11 05:12:23;;;;;;;3.47;1.47;;;19.10;99.90;;;;;;5032806;28;20605;-75
2021/09/11 05:14:48;;;;;;;0.80;0.70;;;19.10;99.90;;;;;;5028311;28;20171;-75
2021/09/11 05:17:14;;;;;;;0.70;0.60;;;19.00;99.90;;;;;;5013911;28;20580;-76
2021/09/11 05:19:39;;;;;;;0.70;0.57;;;19.00;99.90;;;;;;5013153;28;20665;-75
2021/09/11 05:22:06;;;;;;;1.27;1.17;;;19.00;99.90;;;;;;5016434;28;20180;-76
2021/09/11 05:24:31;;;;;;;0.83;0.83;;;18.90;99.90;;;;;;5013805;28;20176;-78
2021/09/11 05:26:57;;;;;;;0.77;0.70;;;18.90;99.90;;;;;;5011520;28;20415;-76
2021/09/11 05:29:23;;;;;;;0.77;0.70;;;18.80;99.90;;;;;;5012859;28;20195;-76
2021/09/11 05:31:48;;;;;;;1.43;0.80;;;18.70;99.90;;;;;;5021291;28;20184;-75
2021/09/11 05:34:14;;;;;;;4.07;3.10;;;18.70;99.90;;;;;;5017550;28;20164;-75
2021/09/11 05:36:40;;;;;;;0.83;0.67;;;18.60;99.90;;;;;;5031912;28;20655;-75
2021/09/11 05:39:05;;;;;;;0.80;0.60;;;18.60;99.90;;;;;;5032430;28;20179;-75
2021/09/11 05:41:31;;;;;;;1.03;0.93;;;18.50;99.90;;;;;;5032445;28;20580;-75
2021/09/11 05:43:56;;;;;;;0.90;0.70;;;18.60;99.90;;;;;;5031743;28;20644;-76
2021/09/11 05:46:22;;;;;;;0.70;0.50;;;18.70;99.90;;;;;;5033910;28;20548;-78
2021/09/11 05:48:47;;;;;;;0.70;0.50;;;18.60;99.90;;;;;;5021324;28;20173;-75
2021/09/11 05:51:13;;;;;;;1.40;0.77;;;18.60;99.90;;;;;;5012458;28;20703;-75
2021/09/11 05:53:38;;;;;;;1.20;0.90;;;18.70;99.90;;;;;;5011887;28;20634;-75
2021/09/11 05:56:04;;;;;;;0.70;0.60;;;18.70;99.90;;;;;;5013223;28;20180;-77
2021/09/11 05:58:29;;;;;;;1.10;1.00;;;18.80;99.90;;;;;;5012573;28;20247;-76
2021/09/11 06:00:56;;;;;;;0.70;0.50;;;18.80;99.90;;;;;;5012980;28;20177;-77
2021/09/11 06:03:22;;;;;;;0.80;0.70;;;18.80;99.90;;;;;;5014880;28;20168;-77
2021/09/11 06:05:48;;;;;;;0.70;0.50;;;18.70;99.90;;;;;;5025409;28;20790;-77
2021/09/11 06:08:13;;;;;;;0.90;0.70;;;18.80;99.90;;;;;;5030395;28;20431;-75
2021/09/11 06:10:39;;;;;;;0.70;0.50;;;18.80;99.90;;;;;;5031933;28;20516;-75
2021/09/11 06:13:04;;;;;;;0.90;0.90;;;18.80;99.90;;;;;;5030671;28;20195;-76
2021/09/11 06:15:30;;;;;;;1.37;1.23;;;18.80;99.90;;;;;;5031807;28;20594;-75
2021/09/11 06:17:56;;;;;;;1.23;1.07;;;18.90;99.90;;;;;;5031915;28;20199;-76
2021/09/11 06:20:21;;;;;;;1.20;1.10;;;19.00;99.90;;;;;;5017479;28;20192;-76
2021/09/11 06:22:47;;;;;;;0.90;0.70;;;18.90;99.90;;;;;;5031380;28;20187;-76
2021/09/11 06:25:13;;;;;;;0.93;0.83;;;19.00;99.90;;;;;;5031576;28;20238;-75
2021/09/11 06:27:43;;;;;;;1.57;1.47;;;19.00;99.90;;;;;;5031827;28;20168;-75
2021/09/11 06:30:12;;;;;;;1.10;0.80;;;19.10;99.90;;;;;;5033738;28;20441;-78
2021/09/11 06:32:38;;;;;;;1.77;1.00;;;19.10;99.90;;;;;;5031330;28;20484;-76
2021/09/11 06:35:05;;;;;;;0.70;0.50;;;19.10;99.90;;;;;;5029757;28;20418;-76
2021/09/11 06:37:32;;;;;;;1.97;1.63;;;19.10;99.90;;;;;;5014097;28;20414;-78
2021/09/11 06:39:58;;;;;;;0.70;0.50;;;19.20;99.90;;;;;;5012368;28;20431;-76
2021/09/11 06:42:23;;;;;;;0.80;0.70;;;19.20;99.90;;;;;;5012324;28;20434;-78
2021/09/11 06:44:49;;;;;;;0.80;0.80;;;19.30;99.90;;;;;;5015234;28;20180;-78
2021/09/11 06:47:14;;;;;;;1.23;1.13;;;19.40;99.90;;;;;;5023896;28;20183;-75
2021/09/11 06:49:41;;;;;;;0.80;0.60;;;19.40;99.90;;;;;;5031332;28;20254;-75
2021/09/11 06:52:08;;;;;;;0.80;0.60;;;19.50;99.90;;;;;;5028894;28;20214;-77
2021/09/11 06:54:34;;;;;;;0.80;0.70;;;19.40;99.90;;;;;;5030757;28;20430;-77
2021/09/11 06:56:59;;;;;;;0.70;0.60;;;19.40;99.90;;;;;;5023815;28;20553;-74
2021/09/11 06:59:25;;;;;;;1.93;1.37;;;19.50;99.90;;;;;;5011734;28;20185;-75
2021/09/11 07:01:50;;;;;;;0.93;0.80;;;19.60;99.90;;;;;;5011723;28;20529;-75
2021/09/11 07:04:16;;;;;;;0.80;0.77;;;19.80;99.90;;;;;;5014417;28;20212;-75
2021/09/11 07:06:41;;;;;;;1.30;0.80;;;19.90;99.90;;;;;;5016790;28;20239;-78
2021/09/11 07:09:07;;;;;;;1.60;0.70;;;20.00;99.90;;;;;;5028124;28;20222;-77
2021/09/11 07:11:33;;;;;;;0.90;0.80;;;19.90;99.90;;;;;;5027839;28;20199;-76
2021/09/11 07:13:58;;;;;;;0.80;0.70;;;20.00;99.90;;;;;;5029344;28;20168;-77
2021/09/11 07:16:24;;;;;;;1.77;1.67;;;20.10;99.90;;;;;;5034315;28;20547;-75
2021/09/11 07:18:49;;;;;;;0.70;0.50;;;20.20;99.90;;;;;;5034966;28;20247;-75
2021/09/11 07:21:15;;;;;;;0.80;0.60;;;20.10;99.90;;;;;;5035019;28;20164;-75
2021/09/11 07:23:40;;;;;;;0.80;0.60;;;20.20;99.90;;;;;;5034924;28;20203;-78
2021/09/11 07:26:06;;;;;;;0.77;0.70;;;20.40;99.90;;;;;;5029276;28;20183;-77
2021/09/11 07:28:32;;;;;;;0.80;0.63;;;20.70;99.90;;;;;;5016123;28;20175;-77
2021/09/11 07:30:57;;;;;;;1.83;1.27;;;21.10;99.90;;;;;;5015204;28;20184;-75
2021/09/11 07:33:23;;;;;;;0.70;0.60;;;21.60;99.90;;;;;;5014984;28;20203;-76
2021/09/11 07:35:48;;;;;;;0.83;0.70;;;21.70;99.90;;;;;;5013688;28;20165;-75
2021/09/11 07:38:15;;;;;;;2.13;1.00;;;21.80;99.90;;;;;;5026084;28;20176;-76
2021/09/11 07:40:42;;;;;;;1.17;0.80;;;22.00;99.90;;;;;;5033051;28;20582;-76
2021/09/11 07:43:09;;;;;;;2.60;1.20;;;22.10;99.90;;;;;;5030461;28;20426;-76
2021/09/11 07:45:38;;;;;;;0.77;0.57;;;22.00;99.90;;;;;;5014490;28;20416;-75
2021/09/11 07:48:05;;;;;;;1.53;0.80;;;22.20;99.90;;;;;;5018414;28;20461;-76
2021/09/11 07:50:31;;;;;;;1.03;0.60;;;22.40;99.90;;;;;;5028615;28;20537;-75
2021/09/11 07:52:57;;;;;;;1.10;0.80;;;22.40;99.90;;;;;;5033513;28;20533;-75
2021/09/11 07:55:23;;;;;;;1.00;0.70;;;22.30;99.90;;;;;;5017578;28;20188;-78
2021/09/11 07:57:49;;;;;;;0.90;0.80;;;22.30;99.90;;;;;;5019617;28;20754;-77
2021/09/11 08:00:16;;;;;;;0.90;0.80;;;22.40;99.90;;;;;;5019037;28;20496;-77
2021/09/11 08:02:42;;;;;;;1.43;1.33;;;22.40;99.90;;;;;;5028093;28;20206;-75
2021/09/11 08:05:08;;;;;;;0.90;0.60;;;22.60;99.90;;;;;;5014465;28;20793;-75
2021/09/11 08:07:33;;;;;;;0.90;0.70;;;22.70;99.90;;;;;;5024510;28;20176;-76
2021/09/11 08:09:59;;;;;;;0.83;0.63;;;22.80;99.90;;;;;;5031089;28;20203;-75
2021/09/11 08:12:24;;;;;;;1.20;1.10;;;22.80;99.90;;;;;;5034187;28;20238;-77
2021/09/11 08:14:50;;;;;;;1.63;0.60;;;23.10;99.90;;;;;;5036979;28;20182;-75
2021/09/11 08:17:15;;;;;;;0.93;0.73;;;23.40;99.90;;;;;;5027670;28;20186;-76
2021/09/11 08:19:41;;;;;;;1.00;0.70;;;23.80;99.90;;;;;;5022791;28;20206;-78
2021/09/11 08:22:06;;;;;;;0.80;0.70;;;24.20;99.90;;;;;;5018376;28;20234;-76
2021/09/11 08:24:32;;;;;;;1.57;1.00;;;24.50;99.90;;;;;;5018001;28;20184;-78
2021/09/11 08:26:57;;;;;;;1.27;1.17;;;25.10;99.90;;;;;;5016739;28;20582;-78
2021/09/11 08:29:23;;;;;;;0.90;0.80;;;25.60;99.90;;;;;;5037038;28;20665;-76
2021/09/11 08:31:49;;;;;;;0.80;0.60;;;26.10;99.90;;;;;;5032464;28;20203;-77
2021/09/11 08:34:14;;;;;;;0.80;0.50;;;26.40;99.90;;;;;;5026592;28;20602;-76
2021/09/11 08:36:40;;;;;;;0.80;0.60;;;26.80;99.90;;;;;;5024667;28;20200;-78
2021/09/11 08:39:05;;;;;;;1.23;1.03;;;27.10;99.90;;;;;;5016176;28;20199;-78
2021/09/11 08:41:31;;;;;;;0.90;0.60;;;27.30;99.90;;;;;;5016892;28;20310;-78
2021/09/11 08:43:59;;;;;;;0.90;0.80;;;27.40;99.90;;;;;;5014005;28;20179;-75
2021/09/11 08:46:27;;;;;;;0.90;0.73;;;27.50;99.90;;;;;;5028496;28;20422;-76
2021/09/11 08:48:53;;;;;;;1.10;0.60;;;27.50;99.90;;;;;;5034190;28;20804;-76
2021/09/11 08:51:19;;;;;;;0.80;0.50;;;27.00;99.90;;;;;;5015234;28;20449;-76
2021/09/11 08:53:44;;;;;;;1.10;0.60;;;26.50;99.90;;;;;;5012283;28;20588;-76
2021/09/11 08:56:10;;;;;;;1.30;0.90;;;26.40;99.90;;;;;;5020482;28;20200;-77
2021/09/11 08:58:36;;;;;;;0.87;0.70;;;26.50;99.90;;;;;;5033224;28;20183;-77
2021/09/11 09:01:02;;;;;;;0.90;0.70;;;26.20;99.90;;;;;;5033438;28;20422;-76
2021/09/11 09:03:38;;;;;;;0.80;0.60;;;25.80;99.90;;;;;;5033288;28;20168;-76
2021/09/11 09:06:19;;;;;;;0.87;0.70;;;25.40;99.90;;;;;;5022599;28;20422;-77
2021/09/11 09:08:47;;;;;;;0.80;0.70;;;25.20;99.90;;;;;;5014458;28;20407;-77
2021/09/11 09:11:17;;;;;;;0.80;0.50;;;25.40;99.90;;;;;;5021537;28;20418;-78
2021/09/11 09:14:08;;;;;;;1.10;0.80;;;25.40;99.90;;;;;;5033249;28;20453;-77
2021/09/11 09:16:36;;;;;;;1.30;0.70;;;25.50;99.90;;;;;;5031598;28;20414;-77
2021/09/11 09:19:11;;;;;;;0.80;0.60;;;24.70;99.90;;;;;;5012456;28;20438;-76
2021/09/11 09:21:37;;;;;;;0.90;0.60;;;24.70;99.90;;;;;;5013683;28;20426;-76
2021/09/11 09:24:05;;;;;;;1.10;0.60;;;24.70;99.90;;;;;;5013395;28;20403;-76
2021/09/11 09:26:47;;;;;;;0.80;0.60;;;24.90;99.90;;;;;;5013729;28;20416;-77
2021/09/11 09:29:15;;;;;;;0.80;0.60;;;24.80;99.90;;;;;;5024448;28;21016;-77
2021/09/11 09:31:42;;;;;;;0.80;0.50;;;24.30;99.90;;;;;;5031978;28;20803;-77
2021/09/11 09:34:08;;;;;;;1.10;0.70;;;24.20;99.90;;;;;;5034046;28;20512;-77
2021/09/11 09:36:41;;;;;;;0.90;0.70;;;24.10;99.90;;;;;;5033655;28;20434;-77
2021/09/11 09:39:10;;;;;;;0.90;0.70;;;24.10;99.90;;;;;;5029246;28;20196;-76
2021/09/11 09:41:50;;;;;;;0.90;0.80;;;24.50;99.90;;;;;;5014348;28;20434;-77
2021/09/11 09:44:18;;;;;;;1.07;0.97;;;24.60;99.90;;;;;;5031959;28;20757;-76
2021/09/11 09:46:45;;;;;;;1.00;0.60;;;24.60;99.90;;;;;;5033000;28;20414;-77
2021/09/11 09:49:15;;;;;;;0.80;0.60;;;24.70;99.90;;;;;;5024568;28;20894;-77
2021/09/11 09:51:41;;;;;;;1.40;0.60;;;24.50;99.90;;;;;;5013774;28;20456;-77
2021/09/11 09:54:07;;;;;;;0.90;0.70;;;24.40;99.90;;;;;;5024095;28;20426;-77
2021/09/11 09:56:32;;;;;;;0.90;0.70;;;24.50;99.90;;;;;;5025388;28;20273;-77
2021/09/11 09:58:59;;;;;;;0.80;0.70;;;24.40;99.90;;;;;;5033511;28;20194;-77
2021/09/11 10:01:26;;;;;;;0.90;0.70;;;24.20;99.90;;;;;;5019295;28;20243;-77
2021/09/11 10:03:52;;;;;;;1.40;0.80;;;24.10;99.90;;;;;;5033027;28;20418;-77
2021/09/11 10:06:25;;;;;;;0.97;0.87;;;24.40;99.90;;;;;;5033305;28;20406;-77
2021/09/11 10:09:04;;;;;;;0.80;0.60;;;24.50;99.90;;;;;;5031821;28;20171;-78
2021/09/11 10:11:37;;;;;;;0.83;0.63;;;24.60;99.90;;;;;;5034506;28;20390;-78
2021/09/11 10:14:09;;;;;;;0.90;0.80;;;25.50;99.90;;;;;;5033651;28;20418;-79
2021/09/11 10:16:43;;;;;;;0.80;0.70;;;26.20;99.90;;;;;;5014587;28;20460;-78
2021/09/11 10:19:18;;;;;;;0.90;0.60;;;27.30;99.90;;;;;;5015220;28;20419;-78
2021/09/11 10:21:48;;;;;;;0.90;0.70;;;27.50;99.90;;;;;;5021478;28;20774;-78
2021/09/11 10:24:14;;;;;;;0.80;0.63;;;27.10;99.90;;;;;;5022289;28;20418;-77
2021/09/11 10:26:48;;;;;;;0.80;0.60;;;26.60;99.90;;;;;;5019103;28;20928;-78
2021/09/11 10:29:35;;;;;;;0.90;0.70;;;26.90;99.90;;;;;;5022349;28;20261;-78
2021/09/11 10:32:01;;;;;;;0.90;0.70;;;27.30;99.90;;;;;;5015808;28;21037;-78
2021/09/11 10:35:01;;;;;;;1.10;0.80;;;27.70;99.90;;;;;;5015661;28;20414;-78
2021/09/11 10:37:39;;;;;;;1.00;0.90;;;28.80;99.90;;;;;;5014722;28;20437;-78
2021/09/11 10:40:31;;;;;;;1.30;0.80;;;29.60;99.90;;;;;;5032182;28;20437;-79
2021/09/11 10:43:13;;;;;;;0.97;0.77;;;30.40;99.90;;;;;;5027909;28;20932;-80
2021/09/11 10:45:47;;;;;;;1.00;0.70;;;30.50;97.80;;;;;;5020228;28;20411;-79
2021/09/11 10:48:45;;;;;;;0.80;0.60;;;30.30;95.90;;;;;;5018680;28;20918;-78
2021/09/11 10:51:30;;;;;;;1.20;1.10;;;29.90;96.80;;;;;;5016492;28;20442;-78
2021/09/11 10:53:58;;;;;;;0.90;0.70;;;29.40;96.50;;;;;;5031736;28;20965;-78
2021/09/11 10:56:43;;;;;;;0.90;0.80;;;28.50;95.40;;;;;;5029986;28;20419;-79
2021/09/11 10:59:15;;;;;;;1.00;0.80;;;27.10;96.50;;;;;;5020636;28;20443;-78
2021/09/11 11:02:12;;;;;;;0.80;0.53;;;26.60;99.90;;;;;;5037594;28;20464;-77
2021/09/11 11:05:01;;;;;;;1.33;1.13;;;26.20;99.90;;;;;;5036303;28;20556;-77
2021/09/11 11:07:30;;;;;;;0.80;0.60;;;25.70;99.90;;;;;;5023843;28;20430;-77
2021/09/11 11:09:56;;;;;;;0.90;0.70;;;25.70;99.90;;;;;;5016169;28;20951;-76
2021/09/11 11:12:23;;;;;;;0.90;0.70;;;25.60;99.90;;;;;;5016894;28;20508;-76
2021/09/11 11:14:50;;;;;;;0.80;0.70;;;25.40;99.90;;;;;;5014224;28;21296;-76
2021/09/11 11:17:19;;;;;;;1.00;0.80;;;25.30;99.90;;;;;;5034604;28;20410;-76
2021/09/11 11:19:50;;;;;;;1.13;0.60;;;25.30;99.90;;;;;;5026387;28;20514;-76
2021/09/11 11:22:22;;;;;;;0.80;0.53;;;25.00;99.90;;;;;;5030714;28;20804;-77
2021/09/11 11:24:48;;;;;;;0.90;0.70;;;24.80;99.90;;;;;;5035068;28;20410;-77
2021/09/11 11:27:26;;;;;;;1.90;1.80;;;24.80;99.90;;;;;;5035192;28;20497;-77
2021/09/11 11:29:53;;;;;;;0.80;0.60;;;24.80;99.90;;;;;;5019460;28;20203;-77
2021/09/11 11:32:22;;;;;;;0.90;0.77;;;24.50;99.90;;;;;;5026999;28;20454;-77
2021/09/11 11:34:54;;;;;;;0.90;0.70;;;24.20;99.90;;;;;;5030705;28;20853;-77
2021/09/11 11:37:21;;;;;;;1.20;0.90;;;23.90;99.90;;;;;;5018949;28;20458;-77
2021/09/11 11:39:47;;;;;;;1.10;0.67;;;23.70;99.90;;;;;;5018299;28;20435;-77
2021/09/11 11:42:12;;;;;;;0.90;0.70;;;23.60;99.90;;;;;;5036425;28;20457;-77
2021/09/11 11:44:39;;;;;;;0.90;0.70;;;23.50;99.90;;;;;;5036542;28;20172;-77
2021/09/11 11:47:21;;;;;;;0.90;0.73;;;23.50;99.90;;;;;;5035715;28;20266;-77
2021/09/11 11:49:46;;;;;;;0.80;0.70;;;23.50;99.90;;;;;;5018702;28;20464;-77
2021/09/11 11:52:14;;;;;;;3.53;1.63;;;23.60;99.90;;;;;;5035248;28;20970;-77
2021/09/11 11:54:45;;;;;;;0.80;0.60;;;23.70;99.90;;;;;;5021163;28;20188;-77
2021/09/11 11:57:16;;;;;;;1.10;0.93;;;23.70;99.90;;;;;;5014823;28;20415;-77
2021/09/11 11:59:43;;;;;;;1.07;0.97;;;23.70;99.90;;;;;;5033510;28;20440;-76
2021/09/11 12:02:21;;;;;;;1.20;1.10;;;23.80;99.90;;;;;;5031474;28;20529;-77
2021/09/11 12:04:48;;;;;;;0.90;0.70;;;24.40;99.90;;;;;;5016865;28;20408;-76
2021/09/11 12:07:30;;;;;;;1.03;0.70;;;24.70;99.90;;;;;;5016518;28;20502;-77
2021/09/11 12:10:00;;;;;;;0.80;0.60;;;24.80;99.90;;;;;;5016025;28;20438;-77
2021/09/11 12:12:28;;;;;;;1.00;0.60;;;25.00;99.90;;;;;;5020901;28;20451;-78
2021/09/11 12:14:54;;;;;;;0.90;0.70;;;25.50;99.90;;;;;;5031338;28;20931;-78
2021/09/11 12:17:20;;;;;;;1.00;0.60;;;26.00;99.90;;;;;;5036821;28;20947;-78
2021/09/11 12:19:45;;;;;;;1.23;1.00;;;26.20;99.90;;;;;;5036202;28;20430;-77
2021/09/11 12:22:21;;;;;;;0.80;0.60;;;26.40;99.90;;;;;;5036769;28;20183;-77
2021/09/11 12:24:58;;;;;;;0.90;0.70;;;26.10;99.90;;;;;;5036041;28;20178;-77
2021/09/11 12:27:28;;;;;;;0.80;0.50;;;25.90;99.90;;;;;;5034948;28;20922;-77
2021/09/11 12:30:07;;;;;;;1.07;0.97;;;25.90;99.90;;;;;;5021153;28;20471;-77
2021/09/11 12:32:33;;;;;;;0.90;0.60;;;25.80;99.90;;;;;;5016279;28;20486;-77
2021/09/11 12:35:09;;;;;;;1.03;0.93;;;25.80;99.90;;;;;;5016297;28;20497;-76
2021/09/11 12:37:54;;;;;;;0.80;0.60;;;25.60;99.90;;;;;;5034304;28;20232;-77
2021/09/11 12:40:19;;;;;;;2.57;0.70;;;25.50;99.90;;;;;;5019056;28;20648;-77
2021/09/11 12:42:45;;;;;;;0.80;0.60;;;25.30;99.90;;;;;;5015927;28;20423;-76
2021/09/11 12:45:11;;;;;;;1.50;0.87;;;25.40;99.90;;;;;;5015680;28;20226;-77
2021/09/11 12:47:37;;;;;;;0.93;0.60;;;25.20;99.90;;;;;;5015229;28;20176;-77
2021/09/11 12:50:03;;;;;;;0.90;0.70;;;25.20;99.90;;;;;;5014408;28;20558;-77